sensor_id;sensor_type;location;lat;lon;timestamp;pressure;altitude;pressure_sealevel;temperature;humidity
70982;BME280;58640;51.320;9.456;2023-03-22T00:00:37;98938.75;;;7.42;100.00
70982;BME280;58640;51.320;9.456;2023-03-22T00:03:03;98930.91;;;7.41;100.00
70982;BME280;58640;51.320;9.456;2023-03-22T00:05:29;98936.25;;;7.25;100.00
70982;BME280;58640;51.320;9.456;2023-03-22T00:07:55;98935.09;;;7.27;100.00
70982;BME280;58640;51.320;9.456;2023-03-22T00:10:25;98930.06;;;7.32;100.00
70982;BME280;58640;51.320;9.456;2023-03-22T00:12:53;98929.41;;;7.47;100.00
70982;BME280;58640;51.320;9.456;2023-03-22T00:15:18;98930.22;;;7.31;100.00
70982;BME280;58640;51.320;9.456;2023-03-22T00:17:44;98920.53;;;7.38;100.00
70982;BME280;58640;51.320;9.456;2023-03-22T00:20:10;98921.72;;;7.19;100.00
70982;BME280;58640;51.320;9.456;2023-03-22T00:22:36;98919.69;;;7.13;100.00
70982;BME280;58640;51.320;9.456;2023-03-22T00:25:02;98919.53;;;7.07;100.00
70982;BME280;58640;51.320;9.456;2023-03-22T00:27:27;98918.38;;;7.17;100.00
70982;BME280;58640;51.320;9.456;2023-03-22T00:29:53;98921.56;;;7.13;100.00
70982;BME280;58640;51.320;9.456;2023-03-22T00:32:18;98922.53;;;6.96;100.00
70982;BME280;58640;51.320;9.456;2023-03-22T00:34:44;98922.06;;;7.00;100.00
70982;BME280;58640;51.320;9.456;2023-03-22T00:37:09;98923.03;;;6.99;100.00
70982;BME280;58640;51.320;9.456;2023-03-22T00:39:34;98920.69;;;7.04;100.00
70982;BME280;58640;51.320;9.456;2023-03-22T00:42:00;98923.72;;;7.09;100.00
70982;BME280;58640;51.320;9.456;2023-03-22T00:44:25;98915.34;;;6.96;100.00
70982;BME280;58640;51.320;9.456;2023-03-22T00:46:51;98918.03;;;6.96;100.00
70982;BME280;58640;51.320;9.456;2023-03-22T00:49:16;98913.69;;;7.11;100.00
70982;BME280;58640;51.320;9.456;2023-03-22T00:51:43;98912.19;;;7.25;100.00
70982;BME280;58640;51.320;9.456;2023-03-22T00:54:08;98921.72;;;7.27;100.00
70982;BME280;58640;51.320;9.456;2023-03-22T00:56:33;98915.38;;;7.20;100.00
70982;BME280;58640;51.320;9.456;2023-03-22T00:59:02;98916.84;;;7.07;100.00
70982;BME280;58640;51.320;9.456;2023-03-22T01:01:27;98912.84;;;7.03;100.00
70982;BME280;58640;51.320;9.456;2023-03-22T01:03:53;98917.34;;;7.10;100.00
70982;BME280;58640;51.320;9.456;2023-03-22T01:06:18;98915.38;;;7.12;100.00
70982;BME280;58640;51.320;9.456;2023-03-22T01:08:43;98915.38;;;7.12;100.00
70982;BME280;58640;51.320;9.456;2023-03-22T01:11:09;98910.34;;;7.01;100.00
70982;BME280;58640;51.320;9.456;2023-03-22T01:13:35;98910.84;;;6.97;100.00
70982;BME280;58640;51.320;9.456;2023-03-22T01:16:06;98915.19;;;6.98;100.00
70982;BME280;58640;51.320;9.456;2023-03-22T01:18:31;98904.81;;;7.03;100.00
70982;BME280;58640;51.320;9.456;2023-03-22T01:20:58;98902.84;;;7.05;100.00
70982;BME280;58640;51.320;9.456;2023-03-22T01:23:23;98906.50;;;7.04;100.00
70982;BME280;58640;51.320;9.456;2023-03-22T01:25:48;98896.28;;;6.99;100.00
70982;BME280;58640;51.320;9.456;2023-03-22T01:28:14;98896.63;;;6.96;100.00
70982;BME280;58640;51.320;9.456;2023-03-22T01:30:39;98891.97;;;6.90;100.00
70982;BME280;58640;51.320;9.456;2023-03-22T01:33:05;98891.13;;;6.90;100.00
70982;BME280;58640;51.320;9.456;2023-03-22T01:35:32;98896.81;;;7.03;100.00
70982;BME280;58640;51.320;9.456;2023-03-22T01:37:57;98892.94;;;7.05;100.00
70982;BME280;58640;51.320;9.456;2023-03-22T01:40:23;98887.59;;;6.97;100.00
70982;BME280;58640;51.320;9.456;2023-03-22T01:42:48;98887.94;;;7.02;100.00
70982;BME280;58640;51.320;9.456;2023-03-22T01:47:47;98885.94;;;7.36;100.00
70982;BME280;58640;51.320;9.456;2023-03-22T01:50:15;98885.09;;;7.28;100.00
70982;BME280;58640;51.320;9.456;2023-03-22T01:52:41;98876.09;;;7.29;100.00
70982;BME280;58640;51.320;9.456;2023-03-22T01:55:07;98876.72;;;7.23;100.00
70982;BME280;58640;51.320;9.456;2023-03-22T01:57:36;98870.41;;;7.24;100.00
70982;BME280;58640;51.320;9.456;2023-03-22T02:00:04;98864.72;;;7.19;100.00
70982;BME280;58640;51.320;9.456;2023-03-22T02:02:40;98866.22;;;7.13;100.00
70982;BME280;58640;51.320;9.456;2023-03-22T02:05:07;98862.72;;;7.13;100.00
70982;BME280;58640;51.320;9.456;2023-03-22T02:07:34;98865.06;;;7.08;100.00
70982;BME280;58640;51.320;9.456;2023-03-22T02:10:00;98869.56;;;6.99;100.00
70982;BME280;58640;51.320;9.456;2023-03-22T02:12:30;98866.38;;;7.12;100.00
70982;BME280;58640;51.320;9.456;2023-03-22T02:15:32;98866.03;;;6.99;100.00
70982;BME280;58640;51.320;9.456;2023-03-22T02:18:10;98869.88;;;6.80;100.00
70982;BME280;58640;51.320;9.456;2023-03-22T02:26:53;98866.34;;;6.64;100.00
70982;BME280;58640;51.320;9.456;2023-03-22T02:29:43;98857.69;;;6.70;100.00
70982;BME280;58640;51.320;9.456;2023-03-22T02:32:21;98863.84;;;6.70;100.00
70982;BME280;58640;51.320;9.456;2023-03-22T02:35:15;98859.66;;;6.60;100.00
70982;BME280;58640;51.320;9.456;2023-03-22T02:44:00;98850.00;;;6.59;100.00
70982;BME280;58640;51.320;9.456;2023-03-22T02:52:10;98848.13;;;6.59;100.00
70982;BME280;58640;51.320;9.456;2023-03-22T02:55:04;98836.63;;;6.59;100.00
70982;BME280;58640;51.320;9.456;2023-03-22T03:00:16;98844.50;;;6.68;100.00
70982;BME280;58640;51.320;9.456;2023-03-22T03:02:50;98841.81;;;6.68;100.00
70982;BME280;58640;51.320;9.456;2023-03-22T03:05:18;98839.50;;;6.65;100.00
70982;BME280;58640;51.320;9.456;2023-03-22T03:07:49;98840.97;;;6.60;100.00
70982;BME280;58640;51.320;9.456;2023-03-22T03:10:17;98844.31;;;6.62;100.00
70982;BME280;58640;51.320;9.456;2023-03-22T03:12:43;98844.97;;;6.64;100.00
70982;BME280;58640;51.320;9.456;2023-03-22T03:15:11;98844.31;;;6.62;100.00
70982;BME280;58640;51.320;9.456;2023-03-22T03:21:04;98839.47;;;6.57;100.00
70982;BME280;58640;51.320;9.456;2023-03-22T03:28:51;98819.59;;;6.68;100.00
70982;BME280;58640;51.320;9.456;2023-03-22T03:31:45;98832.44;;;6.64;100.00
70982;BME280;58640;51.320;9.456;2023-03-22T03:36:49;98811.41;;;6.61;100.00
70982;BME280;58640;51.320;9.456;2023-03-22T03:39:19;98804.06;;;6.55;100.00
70982;BME280;58640;51.320;9.456;2023-03-22T03:41:47;98811.41;;;6.45;100.00
70982;BME280;58640;51.320;9.456;2023-03-22T03:44:15;98814.41;;;6.50;100.00
70982;BME280;58640;51.320;9.456;2023-03-22T03:46:43;98808.91;;;6.60;100.00
70982;BME280;58640;51.320;9.456;2023-03-22T03:49:10;98804.75;;;6.57;100.00
70982;BME280;58640;51.320;9.456;2023-03-22T03:51:48;98813.06;;;6.62;100.00
70982;BME280;58640;51.320;9.456;2023-03-22T03:54:14;98811.59;;;6.60;100.00
70982;BME280;58640;51.320;9.456;2023-03-22T03:56:39;98809.41;;;6.47;100.00
70982;BME280;58640;51.320;9.456;2023-03-22T03:59:05;98812.09;;;6.55;100.00
70982;BME280;58640;51.320;9.456;2023-03-22T04:01:32;98808.72;;;6.53;100.00
70982;BME280;58640;51.320;9.456;2023-03-22T04:03:57;98806.91;;;6.46;100.00
70982;BME280;58640;51.320;9.456;2023-03-22T04:06:23;98808.53;;;6.39;100.00
70982;BME280;58640;51.320;9.456;2023-03-22T04:08:48;98812.41;;;6.44;100.00
70982;BME280;58640;51.320;9.456;2023-03-22T04:11:20;98811.72;;;6.42;100.00
70982;BME280;58640;51.320;9.456;2023-03-22T04:13:45;98804.53;;;6.35;100.00
70982;BME280;58640;51.320;9.456;2023-03-22T04:16:11;98803.88;;;6.33;100.00
70982;BME280;58640;51.320;9.456;2023-03-22T04:18:37;98806.03;;;6.29;100.00
70982;BME280;58640;51.320;9.456;2023-03-22T04:21:02;98798.84;;;6.30;100.00
70982;BME280;58640;51.320;9.456;2023-03-22T04:23:27;98805.03;;;6.30;100.00
70982;BME280;58640;51.320;9.456;2023-03-22T04:25:53;98800.03;;;6.35;100.00
70982;BME280;58640;51.320;9.456;2023-03-22T04:28:18;98793.88;;;6.43;100.00
70982;BME280;58640;51.320;9.456;2023-03-22T04:30:45;98789.66;;;6.32;100.00
70982;BME280;58640;51.320;9.456;2023-03-22T04:33:15;98786.84;;;6.50;100.00
70982;BME280;58640;51.320;9.456;2023-03-22T04:35:41;98787.84;;;6.41;100.00
70982;BME280;58640;51.320;9.456;2023-03-22T04:38:06;98782.00;;;6.37;100.00
70982;BME280;58640;51.320;9.456;2023-03-22T04:40:32;98790.53;;;6.57;100.00
70982;BME280;58640;51.320;9.456;2023-03-22T04:43:00;98783.19;;;6.59;100.00
70982;BME280;58640;51.320;9.456;2023-03-22T04:45:28;98789.69;;;6.56;100.00
70982;BME280;58640;51.320;9.456;2023-03-22T04:47:57;98784.69;;;6.53;100.00
70982;BME280;58640;51.320;9.456;2023-03-22T04:50:22;98777.00;;;6.42;100.00
70982;BME280;58640;51.320;9.456;2023-03-22T04:52:48;98781.16;;;6.45;100.00
70982;BME280;58640;51.320;9.456;2023-03-22T04:55:14;98787.50;;;6.36;100.00
70982;BME280;58640;51.320;9.456;2023-03-22T04:57:39;98783.84;;;6.45;100.00
70982;BME280;58640;51.320;9.456;2023-03-22T05:00:09;98787.69;;;6.50;100.00
70982;BME280;58640;51.320;9.456;2023-03-22T05:02:35;98788.38;;;6.44;100.00
70982;BME280;58640;51.320;9.456;2023-03-22T05:05:03;98785.53;;;6.46;100.00
70982;BME280;58640;51.320;9.456;2023-03-22T05:07:29;98779.31;;;6.29;100.00
70982;BME280;58640;51.320;9.456;2023-03-22T05:09:54;98776.81;;;6.28;100.00
70982;BME280;58640;51.320;9.456;2023-03-22T05:12:20;98781.63;;;6.24;100.00
70982;BME280;58640;51.320;9.456;2023-03-22T05:14:45;98780.16;;;6.22;100.00
70982;BME280;58640;51.320;9.456;2023-03-22T05:17:10;98784.31;;;6.24;100.00
70982;BME280;58640;51.320;9.456;2023-03-22T05:19:36;98784.47;;;6.23;100.00
70982;BME280;58640;51.320;9.456;2023-03-22T05:22:01;98781.81;;;6.23;100.00
70982;BME280;58640;51.320;9.456;2023-03-22T05:24:30;98781.81;;;6.31;100.00
70982;BME280;58640;51.320;9.456;2023-03-22T05:26:55;98785.53;;;6.46;100.00
70982;BME280;58640;51.320;9.456;2023-03-22T05:29:25;98782.69;;;6.39;100.00
70982;BME280;58640;51.320;9.456;2023-03-22T05:31:51;98793.19;;;6.33;100.00
70982;BME280;58640;51.320;9.456;2023-03-22T05:34:16;98789.16;;;6.29;100.00
70982;BME280;58640;51.320;9.456;2023-03-22T05:36:41;98780.66;;;6.25;100.00
70982;BME280;58640;51.320;9.456;2023-03-22T05:39:07;98790.31;;;6.18;100.00
70982;BME280;58640;51.320;9.456;2023-03-22T05:41:33;98795.69;;;6.34;100.00
70982;BME280;58640;51.320;9.456;2023-03-22T05:43:59;98792.66;;;6.29;100.00
70982;BME280;58640;51.320;9.456;2023-03-22T05:46:25;98796.69;;;6.33;100.00
70982;BME280;58640;51.320;9.456;2023-03-22T05:48:50;98799.06;;;6.44;100.00
70982;BME280;58640;51.320;9.456;2023-03-22T05:51:15;98787.72;;;6.66;100.00
70982;BME280;58640;51.320;9.456;2023-03-22T05:53:47;98784.19;;;6.66;100.00
70982;BME280;58640;51.320;9.456;2023-03-22T05:56:13;98781.00;;;6.78;100.00
70982;BME280;58640;51.320;9.456;2023-03-22T05:58:38;98791.03;;;7.00;100.00
70982;BME280;58640;51.320;9.456;2023-03-22T06:01:12;98789.00;;;6.94;100.00
70982;BME280;58640;51.320;9.456;2023-03-22T06:03:40;98793.38;;;7.03;100.00
70982;BME280;58640;51.320;9.456;2023-03-22T06:06:06;98796.34;;;7.16;100.00
70982;BME280;58640;51.320;9.456;2023-03-22T06:08:35;98791.84;;;7.09;100.00
70982;BME280;58640;51.320;9.456;2023-03-22T06:11:00;98790.47;;;7.37;100.00
70982;BME280;58640;51.320;9.456;2023-03-22T06:13:26;98791.25;;;7.45;100.00
70982;BME280;58640;51.320;9.456;2023-03-22T06:15:51;98788.06;;;7.50;100.00
70982;BME280;58640;51.320;9.456;2023-03-22T06:18:16;98785.22;;;7.52;100.00
70982;BME280;58640;51.320;9.456;2023-03-22T06:20:42;98788.03;;;7.58;100.00
70982;BME280;58640;51.320;9.456;2023-03-22T06:23:08;98786.09;;;7.44;100.00
70982;BME280;58640;51.320;9.456;2023-03-22T06:25:33;98794.66;;;7.31;100.00
70982;BME280;58640;51.320;9.456;2023-03-22T06:27:59;98796.16;;;7.26;100.00
70982;BME280;58640;51.320;9.456;2023-03-22T06:30:24;98785.28;;;7.35;100.00
70982;BME280;58640;51.320;9.456;2023-03-22T06:32:50;98792.22;;;7.61;100.00
70982;BME280;58640;51.320;9.456;2023-03-22T06:35:15;98795.41;;;7.64;100.00
70982;BME280;58640;51.320;9.456;2023-03-22T06:37:41;98789.16;;;7.72;100.00
70982;BME280;58640;51.320;9.456;2023-03-22T06:40:07;98797.59;;;7.99;100.00
70982;BME280;58640;51.320;9.456;2023-03-22T06:42:33;98800.28;;;8.30;100.00
70982;BME280;58640;51.320;9.456;2023-03-22T06:44:58;98802.31;;;8.28;100.00
70982;BME280;58640;51.320;9.456;2023-03-22T06:47:23;98791.97;;;8.17;100.00
70982;BME280;58640;51.320;9.456;2023-03-22T06:49:49;98801.66;;;8.18;100.00
70982;BME280;58640;51.320;9.456;2023-03-22T06:52:14;98801.19;;;8.14;100.00
70982;BME280;58640;51.320;9.456;2023-03-22T06:54:40;98803.50;;;8.17;100.00
70982;BME280;58640;51.320;9.456;2023-03-22T06:57:05;98796.47;;;8.24;100.00
70982;BME280;58640;51.320;9.456;2023-03-22T06:59:31;98800.66;;;8.49;100.00
70982;BME280;58640;51.320;9.456;2023-03-22T07:01:56;98803.53;;;8.48;100.00
70982;BME280;58640;51.320;9.456;2023-03-22T07:04:22;98807.28;;;8.61;100.00
70982;BME280;58640;51.320;9.456;2023-03-22T07:06:48;98808.03;;;8.70;100.00
70982;BME280;58640;51.320;9.456;2023-03-22T07:09:13;98800.78;;;8.78;99.05
70982;BME280;58640;51.320;9.456;2023-03-22T07:11:39;98799.81;;;8.94;99.35
70982;BME280;58640;51.320;9.456;2023-03-22T07:14:04;98797.84;;;8.88;99.01
70982;BME280;58640;51.320;9.456;2023-03-22T07:16:30;98790.84;;;9.02;99.29
70982;BME280;58640;51.320;9.456;2023-03-22T07:18:55;98791.06;;;9.15;98.08
70982;BME280;58640;51.320;9.456;2023-03-22T07:21:21;98773.16;;;9.44;97.51
70982;BME280;58640;51.320;9.456;2023-03-22T07:23:46;98764.38;;;9.65;95.11
70982;BME280;58640;51.320;9.456;2023-03-22T07:26:12;98761.97;;;9.55;94.84
70982;BME280;58640;51.320;9.456;2023-03-22T07:28:38;98761.47;;;9.81;93.63
70982;BME280;58640;51.320;9.456;2023-03-22T07:31:07;98759.59;;;9.96;92.50
70982;BME280;58640;51.320;9.456;2023-03-22T07:33:36;98770.38;;;10.31;89.43
70982;BME280;58640;51.320;9.456;2023-03-22T07:36:01;98759.34;;;10.26;89.44
70982;BME280;58640;51.320;9.456;2023-03-22T07:38:27;98763.66;;;10.42;88.92
70982;BME280;58640;51.320;9.456;2023-03-22T07:40:53;98753.63;;;10.72;87.81
70982;BME280;58640;51.320;9.456;2023-03-22T07:43:19;98750.97;;;10.36;88.68
70982;BME280;58640;51.320;9.456;2023-03-22T07:45:47;98746.19;;;10.31;89.70
70982;BME280;58640;51.320;9.456;2023-03-22T07:48:13;98749.66;;;10.47;87.94
70982;BME280;58640;51.320;9.456;2023-03-22T07:50:38;98742.47;;;10.75;86.30
70982;BME280;58640;51.320;9.456;2023-03-22T07:53:04;98740.75;;;10.67;86.59
70982;BME280;58640;51.320;9.456;2023-03-22T07:55:29;98732.69;;;10.46;87.43
70982;BME280;58640;51.320;9.456;2023-03-22T07:57:54;98748.56;;;10.62;87.31
70982;BME280;58640;51.320;9.456;2023-03-22T08:00:20;98738.94;;;10.74;86.70
70982;BME280;58640;51.320;9.456;2023-03-22T08:02:46;98740.81;;;10.31;87.88
70982;BME280;58640;51.320;9.456;2023-03-22T08:05:11;98739.00;;;10.03;89.73
70982;BME280;58640;51.320;9.456;2023-03-22T08:07:37;98728.63;;;10.35;88.38
70982;BME280;58640;51.320;9.456;2023-03-22T08:10:03;98734.03;;;10.57;87.95
70982;BME280;58640;51.320;9.456;2023-03-22T08:12:28;98732.81;;;10.59;87.31
70982;BME280;58640;51.320;9.456;2023-03-22T08:14:55;98737.75;;;10.77;87.92
70982;BME280;58640;51.320;9.456;2023-03-22T08:17:20;98742.41;;;10.89;86.21
70982;BME280;58640;51.320;9.456;2023-03-22T08:19:46;98742.06;;;10.99;86.71
70982;BME280;58640;51.320;9.456;2023-03-22T08:22:11;98738.78;;;11.65;82.93
70982;BME280;58640;51.320;9.456;2023-03-22T08:24:37;98740.53;;;11.86;81.56
70982;BME280;58640;51.320;9.456;2023-03-22T08:27:03;98748.78;;;11.71;80.88
70982;BME280;58640;51.320;9.456;2023-03-22T08:29:29;98743.66;;;11.48;83.06
70982;BME280;58640;51.320;9.456;2023-03-22T08:31:54;98758.31;;;11.46;82.88
70982;BME280;58640;51.320;9.456;2023-03-22T08:34:20;98755.28;;;11.55;82.26
70982;BME280;58640;51.320;9.456;2023-03-22T08:36:45;98754.19;;;11.77;81.02
70982;BME280;58640;51.320;9.456;2023-03-22T08:39:11;98743.41;;;11.77;82.79
70982;BME280;58640;51.320;9.456;2023-03-22T08:41:37;98748.41;;;11.81;80.56
70982;BME280;58640;51.320;9.456;2023-03-22T08:44:03;98739.81;;;12.11;79.36
70982;BME280;58640;51.320;9.456;2023-03-22T08:46:28;98744.13;;;11.99;78.33
70982;BME280;58640;51.320;9.456;2023-03-22T08:48:54;98747.78;;;11.78;79.68
70982;BME280;58640;51.320;9.456;2023-03-22T08:51:20;98737.81;;;11.72;79.86
70982;BME280;58640;51.320;9.456;2023-03-22T08:53:47;98729.22;;;11.97;79.98
70982;BME280;58640;51.320;9.456;2023-03-22T08:56:13;98732.13;;;12.08;79.40
70982;BME280;58640;51.320;9.456;2023-03-22T08:58:41;98727.69;;;12.61;76.94
70982;BME280;58640;51.320;9.456;2023-03-22T09:01:14;98738.47;;;12.54;76.94
70982;BME280;58640;51.320;9.456;2023-03-22T09:03:40;98736.84;;;12.66;76.28
70982;BME280;58640;51.320;9.456;2023-03-22T09:06:06;98729.38;;;12.55;75.40
70982;BME280;58640;51.320;9.456;2023-03-22T09:08:32;98717.00;;;12.07;77.63
70982;BME280;58640;51.320;9.456;2023-03-22T09:10:58;98712.03;;;12.04;77.81
70982;BME280;58640;51.320;9.456;2023-03-22T09:13:24;98714.56;;;12.25;77.12
70982;BME280;58640;51.320;9.456;2023-03-22T09:15:50;98714.81;;;12.50;75.06
70982;BME280;58640;51.320;9.456;2023-03-22T09:18:16;98706.91;;;12.42;75.59
70982;BME280;58640;51.320;9.456;2023-03-22T09:20:43;98701.56;;;12.74;74.60
70982;BME280;58640;51.320;9.456;2023-03-22T09:23:08;98698.25;;;12.79;74.58
70982;BME280;58640;51.320;9.456;2023-03-22T09:25:34;98693.69;;;12.66;74.68
70982;BME280;58640;51.320;9.456;2023-03-22T09:28:00;98694.28;;;12.49;75.96
70982;BME280;58640;51.320;9.456;2023-03-22T09:30:25;98691.69;;;12.08;76.96
70982;BME280;58640;51.320;9.456;2023-03-22T09:32:51;98675.47;;;11.82;78.45
70982;BME280;58640;51.320;9.456;2023-03-22T09:35:16;98674.94;;;12.19;77.31
70982;BME280;58640;51.320;9.456;2023-03-22T09:37:42;98676.63;;;12.53;76.78
70982;BME280;58640;51.320;9.456;2023-03-22T09:40:10;98679.75;;;13.15;73.97
70982;BME280;58640;51.320;9.456;2023-03-22T09:42:41;98662.00;;;13.52;71.02
70982;BME280;58640;51.320;9.456;2023-03-22T09:45:18;98659.75;;;13.36;72.33
70982;BME280;58640;51.320;9.456;2023-03-22T09:47:48;98661.78;;;13.53;71.42
70982;BME280;58640;51.320;9.456;2023-03-22T09:50:20;98657.31;;;13.85;68.98
70982;BME280;58640;51.320;9.456;2023-03-22T09:52:47;98649.84;;;14.24;67.68
70982;BME280;58640;51.320;9.456;2023-03-22T09:55:21;98657.72;;;14.26;67.26
70982;BME280;58640;51.320;9.456;2023-03-22T10:00:47;98644.47;;;14.11;67.06
70982;BME280;58640;51.320;9.456;2023-03-22T10:06:18;98630.19;;;14.85;63.95
70982;BME280;58640;51.320;9.456;2023-03-22T10:09:05;98620.88;;;15.59;61.75
70982;BME280;58640;51.320;9.456;2023-03-22T10:16:33;98637.72;;;15.25;63.82
70982;BME280;58640;51.320;9.456;2023-03-22T10:19:14;98634.56;;;14.86;61.62
70982;BME280;58640;51.320;9.456;2023-03-22T10:21:45;98641.50;;;14.50;63.89
70982;BME280;58640;51.320;9.456;2023-03-22T10:24:15;98630.59;;;14.01;65.42
70982;BME280;58640;51.320;9.456;2023-03-22T10:26:47;98649.13;;;14.60;63.82
70982;BME280;58640;51.320;9.456;2023-03-22T10:29:22;98641.28;;;14.21;64.22
70982;BME280;58640;51.320;9.456;2023-03-22T10:31:47;98640.25;;;14.53;63.57
70982;BME280;58640;51.320;9.456;2023-03-22T10:34:26;98638.66;;;14.95;61.19
70982;BME280;58640;51.320;9.456;2023-03-22T10:36:55;98637.44;;;15.33;60.31
70982;BME280;58640;51.320;9.456;2023-03-22T10:39:31;98632.00;;;14.91;59.71
70982;BME280;58640;51.320;9.456;2023-03-22T10:42:01;98639.81;;;15.23;59.44
70982;BME280;58640;51.320;9.456;2023-03-22T10:44:30;98645.75;;;15.14;58.14
70982;BME280;58640;51.320;9.456;2023-03-22T10:47:00;98657.25;;;14.60;59.04
70982;BME280;58640;51.320;9.456;2023-03-22T10:49:35;98661.28;;;14.51;59.48
70982;BME280;58640;51.320;9.456;2023-03-22T10:54:55;98652.53;;;14.24;59.59
70982;BME280;58640;51.320;9.456;2023-03-22T10:57:22;98654.69;;;14.03;61.02
70982;BME280;58640;51.320;9.456;2023-03-22T10:59:51;98635.78;;;14.65;59.97
70982;BME280;58640;51.320;9.456;2023-03-22T11:02:28;98642.53;;;14.25;61.38
70982;BME280;58640;51.320;9.456;2023-03-22T11:04:57;98650.59;;;13.94;61.54
70982;BME280;58640;51.320;9.456;2023-03-22T11:07:32;98641.09;;;13.85;61.51
70982;BME280;58640;51.320;9.456;2023-03-22T11:10:10;98633.78;;;14.23;61.56
70982;BME280;58640;51.320;9.456;2023-03-22T11:12:38;98645.56;;;14.66;59.61
70982;BME280;58640;51.320;9.456;2023-03-22T11:15:04;98647.72;;;14.82;59.07
70982;BME280;58640;51.320;9.456;2023-03-22T11:17:30;98647.06;;;14.87;58.26
70982;BME280;58640;51.320;9.456;2023-03-22T11:19:58;98639.75;;;14.87;58.29
70982;BME280;58640;51.320;9.456;2023-03-22T11:22:38;98629.41;;;14.78;58.26
70982;BME280;58640;51.320;9.456;2023-03-22T11:25:13;98631.91;;;14.79;59.15
70982;BME280;58640;51.320;9.456;2023-03-22T11:27:50;98624.69;;;14.48;59.21
70982;BME280;58640;51.320;9.456;2023-03-22T11:30:23;98605.56;;;14.68;57.05
70982;BME280;58640;51.320;9.456;2023-03-22T11:35:35;98615.13;;;14.46;58.67
70982;BME280;58640;51.320;9.456;2023-03-22T11:38:00;98601.69;;;14.57;57.66
70982;BME280;58640;51.320;9.456;2023-03-22T11:40:34;98599.34;;;14.12;58.96
70982;BME280;58640;51.320;9.456;2023-03-22T11:45:36;98592.22;;;14.48;59.14
70982;BME280;58640;51.320;9.456;2023-03-22T11:48:05;98582.59;;;14.77;57.42
70982;BME280;58640;51.320;9.456;2023-03-22T11:50:34;98580.38;;;14.68;57.12
70982;BME280;58640;51.320;9.456;2023-03-22T11:53:01;98570.22;;;14.38;58.34
70982;BME280;58640;51.320;9.456;2023-03-22T11:55:29;98578.03;;;14.53;57.15
70982;BME280;58640;51.320;9.456;2023-03-22T11:57:58;98569.13;;;14.71;56.58
70982;BME280;58640;51.320;9.456;2023-03-22T12:00:26;98567.03;;;14.48;56.53
70982;BME280;58640;51.320;9.456;2023-03-22T12:02:57;98561.94;;;14.58;56.46
70982;BME280;58640;51.320;9.456;2023-03-22T12:05:30;98568.78;;;14.60;55.97
70982;BME280;58640;51.320;9.456;2023-03-22T12:08:10;98564.72;;;14.51;56.74
70982;BME280;58640;51.320;9.456;2023-03-22T12:10:40;98561.66;;;14.41;55.77
70982;BME280;58640;51.320;9.456;2023-03-22T12:13:13;98572.59;;;14.53;55.61
70982;BME280;58640;51.320;9.456;2023-03-22T12:15:41;98576.94;;;14.79;57.18
70982;BME280;58640;51.320;9.456;2023-03-22T12:20:56;98581.88;;;14.63;59.50
70982;BME280;58640;51.320;9.456;2023-03-22T12:23:32;98593.13;;;14.60;58.31
70982;BME280;58640;51.320;9.456;2023-03-22T12:29:04;98586.81;;;14.91;56.92
70982;BME280;58640;51.320;9.456;2023-03-22T12:31:36;98595.78;;;15.10;56.36
70982;BME280;58640;51.320;9.456;2023-03-22T12:34:06;98594.50;;;14.94;55.86
70982;BME280;58640;51.320;9.456;2023-03-22T12:36:39;98602.34;;;14.78;54.14
70982;BME280;58640;51.320;9.456;2023-03-22T12:39:07;98593.00;;;14.98;53.25
70982;BME280;58640;51.320;9.456;2023-03-22T12:41:36;98588.38;;;14.99;54.09
70982;BME280;58640;51.320;9.456;2023-03-22T12:46:41;98584.25;;;15.14;52.32
70982;BME280;58640;51.320;9.456;2023-03-22T12:49:35;98595.72;;;14.98;52.13
70982;BME280;58640;51.320;9.456;2023-03-22T12:52:46;98582.31;;;14.85;52.75
70982;BME280;58640;51.320;9.456;2023-03-22T12:55:26;98588.38;;;14.81;53.20
70982;BME280;58640;51.320;9.456;2023-03-22T12:57:53;98587.19;;;14.95;52.63
70982;BME280;58640;51.320;9.456;2023-03-22T13:00:41;98588.63;;;14.97;52.70
70982;BME280;58640;51.320;9.456;2023-03-22T13:05:39;98582.97;;;14.81;53.26
70982;BME280;58640;51.320;9.456;2023-03-22T13:08:04;98577.56;;;14.81;53.57
70982;BME280;58640;51.320;9.456;2023-03-22T13:21:30;98569.59;;;15.22;52.69
70982;BME280;58640;51.320;9.456;2023-03-22T13:26:42;98554.34;;;15.09;54.40
70982;BME280;58640;51.320;9.456;2023-03-22T13:34:18;98545.28;;;14.97;54.89
70982;BME280;58640;51.320;9.456;2023-03-22T13:36:49;98539.72;;;15.28;53.83
70982;BME280;58640;51.320;9.456;2023-03-22T13:39:15;98546.50;;;15.01;54.67
70982;BME280;58640;51.320;9.456;2023-03-22T13:41:45;98539.88;;;15.15;54.93
70982;BME280;58640;51.320;9.456;2023-03-22T13:44:24;98536.72;;;15.00;54.63
70982;BME280;58640;51.320;9.456;2023-03-22T13:46:52;98532.59;;;15.16;54.12
70982;BME280;58640;51.320;9.456;2023-03-22T13:51:54;98526.25;;;15.04;54.76
70982;BME280;58640;51.320;9.456;2023-03-22T13:54:35;98521.22;;;14.89;55.32
70982;BME280;58640;51.320;9.456;2023-03-22T13:57:02;98523.94;;;14.71;55.54
70982;BME280;58640;51.320;9.456;2023-03-22T13:59:32;98521.53;;;14.38;56.85
70982;BME280;58640;51.320;9.456;2023-03-22T14:02:27;98519.41;;;14.83;56.12
70982;BME280;58640;51.320;9.456;2023-03-22T14:10:27;98524.81;;;14.83;56.12
70982;BME280;58640;51.320;9.456;2023-03-22T14:13:03;98524.91;;;14.95;55.75
70982;BME280;58640;51.320;9.456;2023-03-22T14:15:36;98520.47;;;15.00;56.12
70982;BME280;58640;51.320;9.456;2023-03-22T14:18:14;98512.09;;;15.02;55.18
70982;BME280;58640;51.320;9.456;2023-03-22T14:20:42;98515.41;;;14.86;55.60
70982;BME280;58640;51.320;9.456;2023-03-22T14:23:13;98512.66;;;14.74;55.55
70982;BME280;58640;51.320;9.456;2023-03-22T14:25:41;98515.81;;;14.71;55.63
70982;BME280;58640;51.320;9.456;2023-03-22T14:28:17;98515.34;;;14.74;55.45
70982;BME280;58640;51.320;9.456;2023-03-22T14:30:43;98516.84;;;14.70;55.32
70982;BME280;58640;51.320;9.456;2023-03-22T14:33:16;98523.34;;;14.44;55.63
70982;BME280;58640;51.320;9.456;2023-03-22T14:35:53;98530.94;;;14.54;56.47
70982;BME280;58640;51.320;9.456;2023-03-22T14:38:21;98517.34;;;14.60;56.00